Hauptseite
METAR-TAF:

METAR-TAF

Flughäfen :

El Oued, Algerien

Breite: 33-30-47N, Länge: 006-46-57E, Höhe: 62 m

Beobachtung

Neuester Wetterbericht von vor 54 Minuten, um 07:00 UTC
Wind 3 kt aus West/Südwest
Temperatur 6°C
Luftfeuchtigkeit 75%
Luftdruck 1023 hPa
Sichtweite: 6000 m

METAR: DAUO 240700Z 25003KT 6000 NSC 06/02 Q1023

Zeit: 08:54 (07:54 UTC)

Prognose

Neuester Wetterbericht von vor 2 Stunden und 54 Minuten, um 05:00 UTC
Gültige Prognose vom 24 um 06 UTC bis 24 um 15 UTC
Wind 2 kt aus unterschiedlichen Richtungen
Sichtweite 10 km oder mehr
keine Wolken unter 1500 m und keine Kumulonimbus oder Gewitterwolken
Übergehend zu
vom 24 um 10 UTC bis 24 um 13 UTC
Wind 10 kt aus Nordwest

TAF: DAUO 240500Z 2406/2415 VRB02KT CAVOK BECMG 2410/2413 32010KT

Wetterbeobachtungen und Prognosen von mehr als 4000 Flughäfen (METAR und TAF Bericht).

Die verfügbaren Stationen werden durch gelbe und rote Markierungen auf der Karte dargestellt.

Führen Sie die Maus auf sie, um den Namen der Station zu sehen.

Darauf klicken, um die Beobachtung von Wetterbeobachtungen und Prognosen zu sehen.

Um die Karte zu ändern : klicken Sie auf den grünen Tasten mit einem schwarzen Kreuz Zum Vergrößern, auf den grünen Button mit einem Gedankenstrich zu verkleinern, oder auf die grünen Pfeile für benachbarte Karten.


METAR-TAF: